Time;durP1;ratioP1;P1;durP2;ratioP2;P2;SDS_P1;SDS_P2;PMS_P1;PMS_P2;Temp;Humidity;BMP_temperature;BMP_pressure;BME280_temperature;BME280_humidity;BME280_pressure;Samples;Min_cycle;Max_cycle;Signal;HPM_P1;HPM_P2
2022/04/05 00:02:15;;;;;;;37.50;6.47;;;5.10;37.60;;;;;;5060660;28;21007;-61
2022/04/05 00:04:42;;;;;;;37.50;5.67;;;5.10;37.50;;;;;;5060634;28;20465;-60
2022/04/05 00:07:08;;;;;;;79.50;7.93;;;5.10;37.50;;;;;;5066243;28;20456;-61
2022/04/05 00:09:35;;;;;;;38.10;6.90;;;5.10;37.40;;;;;;5067314;28;20472;-60
2022/04/05 00:12:02;;;;;;;37.77;6.10;;;5.10;37.40;;;;;;5059593;28;21094;-59
2022/04/05 00:14:30;;;;;;;40.60;7.60;;;5.10;37.60;;;;;;5060354;28;20464;-58
2022/04/05 00:16:57;;;;;;;39.27;7.50;;;5.10;37.60;;;;;;5067619;28;20982;-59
2022/04/05 00:19:25;;;;;;;37.10;6.00;;;5.10;37.60;;;;;;5059895;28;21193;-59
2022/04/05 00:21:54;;;;;;;36.40;5.70;;;5.00;37.80;;;;;;5063673;28;20462;-60
2022/04/05 00:24:20;;;;;;;36.87;6.57;;;5.00;37.90;;;;;;5063647;28;20486;-61
2022/04/05 00:26:47;;;;;;;38.03;7.93;;;5.00;37.90;;;;;;5064523;28;20465;-60
2022/04/05 00:29:14;;;;;;;38.20;7.43;;;5.00;38.10;;;;;;5067695;28;20725;-60
2022/04/05 00:31:42;;;;;;;38.90;6.90;;;5.00;38.10;;;;;;5064539;28;20473;-59
2022/04/05 00:34:09;;;;;;;39.20;8.67;;;5.00;38.20;;;;;;5066052;28;20485;-61
2022/04/05 00:36:36;;;;;;;38.23;7.10;;;5.00;38.20;;;;;;5066769;28;20923;-60
2022/04/05 00:39:02;;;;;;;38.87;7.50;;;5.00;38.20;;;;;;5067682;28;20489;-60
2022/04/05 00:41:29;;;;;;;39.57;7.07;;;5.00;38.20;;;;;;5062517;28;21170;-60
2022/04/05 00:43:56;;;;;;;38.33;6.73;;;5.00;38.10;;;;;;5066339;28;20491;-60
2022/04/05 00:46:23;;;;;;;37.47;7.00;;;5.00;38.00;;;;;;5054441;28;20469;-60
2022/04/05 00:48:55;;;;;;;38.77;7.93;;;5.00;38.10;;;;;;5061765;28;21043;-59
2022/04/05 00:51:23;;;;;;;38.17;7.33;;;5.00;38.00;;;;;;5065936;28;20472;-59
2022/04/05 00:53:53;;;;;;;37.60;7.27;;;4.90;38.00;;;;;;5062854;28;20998;-59
2022/04/05 00:56:22;;;;;;;38.40;7.33;;;5.00;38.00;;;;;;5061524;28;20468;-59
2022/04/05 00:58:52;;;;;;;38.97;6.70;;;5.00;38.00;;;;;;5065568;28;20526;-60
2022/04/05 01:01:21;;;;;;;37.40;6.70;;;4.90;38.10;;;;;;5067792;28;20565;-59
2022/04/05 01:03:53;;;;;;;38.90;6.93;;;4.90;37.90;;;;;;5066118;28;20864;-59
2022/04/05 01:06:23;;;;;;;41.20;7.03;;;4.90;38.00;;;;;;5060772;28;20461;-60
2022/04/05 01:08:51;;;;;;;37.97;6.70;;;4.90;37.90;;;;;;5064510;28;20478;-59
2022/04/05 01:11:18;;;;;;;36.77;6.20;;;4.90;37.90;;;;;;5062057;28;20449;-60
2022/04/05 01:13:45;;;;;;;38.00;6.73;;;4.90;37.80;;;;;;5068811;28;20459;-61
2022/04/05 01:16:12;;;;;;;39.20;7.70;;;4.90;37.80;;;;;;5067115;28;20461;-60
2022/04/05 01:18:39;;;;;;;40.70;8.63;;;4.90;37.50;;;;;;5065164;28;20503;-59
2022/04/05 01:21:07;;;;;;;38.50;7.90;;;5.00;37.30;;;;;;5061505;28;20463;-59
2022/04/05 01:23:34;;;;;;;39.80;7.97;;;4.90;37.30;;;;;;5058510;28;21026;-61
2022/04/05 01:26:02;;;;;;;37.93;7.53;;;5.00;37.20;;;;;;5061300;28;20473;-60
2022/04/05 01:28:29;;;;;;;39.60;6.90;;;5.00;37.20;;;;;;5068145;28;20484;-59
2022/04/05 01:30:56;;;;;;;38.80;8.50;;;5.00;37.00;;;;;;5065057;28;20479;-60
2022/04/05 01:33:23;;;;;;;39.97;8.37;;;5.00;37.10;;;;;;5058600;28;20466;-59
2022/04/05 01:35:49;;;;;;;39.17;8.40;;;5.00;37.00;;;;;;5060699;28;20990;-61
2022/04/05 01:38:17;;;;;;;38.20;8.60;;;5.00;36.80;;;;;;5055314;28;20484;-60
2022/04/05 01:40:44;;;;;;;43.73;8.00;;;5.00;37.00;;;;;;5065630;28;20552;-61
2022/04/05 01:43:13;;;;;;;40.70;8.40;;;5.10;36.60;;;;;;5062352;28;20481;-60
2022/04/05 01:45:43;;;;;;;37.60;7.33;;;5.10;36.60;;;;;;5065079;28;20484;-60
2022/04/05 01:48:09;;;;;;;39.33;8.27;;;5.10;36.50;;;;;;5060848;28;21006;-60
2022/04/05 01:50:36;;;;;;;40.50;8.50;;;5.10;36.40;;;;;;5064188;28;20461;-61
2022/04/05 01:53:03;;;;;;;40.17;7.50;;;5.10;36.40;;;;;;5062594;28;21179;-59
2022/04/05 01:55:30;;;;;;;39.47;7.70;;;5.10;36.30;;;;;;5064516;28;21191;-60
2022/04/05 01:57:58;;;;;;;39.80;8.23;;;5.10;36.40;;;;;;5060666;28;20472;-60
2022/04/05 02:00:26;;;;;;;37.77;7.90;;;5.10;36.00;;;;;;5063031;28;20575;-60
2022/04/05 02:02:53;;;;;;;41.30;7.77;;;5.10;36.10;;;;;;5064182;28;20513;-59
2022/04/05 02:05:20;;;;;;;38.77;7.70;;;5.10;35.60;;;;;;5054248;28;20489;-60
2022/04/05 02:07:46;;;;;;;39.53;7.50;;;5.10;35.50;;;;;;5060295;28;20484;-59
2022/04/05 02:10:13;;;;;;;37.07;6.93;;;5.20;35.40;;;;;;5066454;28;20468;-60
2022/04/05 02:12:40;;;;;;;37.40;7.30;;;5.10;35.70;;;;;;5059245;28;20453;-61
2022/04/05 02:15:08;;;;;;;37.03;6.67;;;5.10;35.60;;;;;;5056808;28;20465;-59
2022/04/05 02:17:37;;;;;;;39.10;7.63;;;5.10;35.70;;;;;;5063348;28;20548;-59
2022/04/05 02:20:04;;;;;;;39.63;7.23;;;5.10;35.50;;;;;;5067406;28;20858;-59
2022/04/05 02:22:31;;;;;;;37.20;7.00;;;5.10;35.30;;;;;;5060402;28;20972;-60
2022/04/05 02:24:58;;;;;;;37.37;7.00;;;5.20;35.10;;;;;;5054901;28;20488;-59
2022/04/05 02:27:24;;;;;;;37.10;7.03;;;5.20;35.40;;;;;;5063940;28;20457;-60
2022/04/05 02:29:51;;;;;;;37.03;6.47;;;5.20;35.30;;;;;;5063983;28;20882;-59
2022/04/05 02:32:18;;;;;;;38.60;7.13;;;5.20;35.00;;;;;;5060282;28;20481;-60
2022/04/05 02:34:46;;;;;;;38.30;7.17;;;5.20;35.10;;;;;;5061566;28;20457;-60
2022/04/05 02:37:12;;;;;;;37.07;7.20;;;5.20;35.30;;;;;;5057911;28;20461;-61
2022/04/05 02:39:39;;;;;;;37.20;7.33;;;5.20;35.50;;;;;;5058576;28;20704;-60
2022/04/05 02:42:06;;;;;;;37.33;7.37;;;5.20;35.60;;;;;;5057696;28;20864;-61
2022/04/05 02:44:34;;;;;;;42.27;8.57;;;5.20;35.80;;;;;;5052630;28;20834;-60
2022/04/05 02:47:02;;;;;;;38.97;7.83;;;5.20;35.60;;;;;;5057897;28;20462;-60
2022/04/05 02:49:29;;;;;;;37.13;7.07;;;5.20;35.80;;;;;;5059609;28;20573;-59
2022/04/05 02:51:57;;;;;;;38.30;7.20;;;5.20;36.00;;;;;;5055755;28;20975;-60
2022/04/05 02:54:24;;;;;;;39.10;8.43;;;5.20;36.20;;;;;;5059695;28;20461;-59
2022/04/05 02:56:51;;;;;;;37.27;7.07;;;5.20;36.10;;;;;;5061262;28;20466;-60
2022/04/05 02:59:17;;;;;;;39.13;7.13;;;5.20;36.50;;;;;;5070098;28;21021;-59
2022/04/05 03:01:44;;;;;;;38.27;7.73;;;5.20;36.60;;;;;;5060265;28;20482;-60
2022/04/05 03:04:12;;;;;;;37.23;6.97;;;5.20;36.70;;;;;;5066116;28;20477;-59
2022/04/05 03:06:38;;;;;;;37.10;7.10;;;5.20;37.10;;;;;;5065918;28;20465;-58
2022/04/05 03:09:06;;;;;;;38.90;7.57;;;5.10;36.90;;;;;;5060499;28;20492;-58
2022/04/05 03:11:33;;;;;;;38.17;7.50;;;5.10;36.90;;;;;;5056125;28;20477;-60
2022/04/05 03:14:00;;;;;;;38.17;7.53;;;5.10;37.10;;;;;;5068549;28;20461;-61
2022/04/05 03:16:27;;;;;;;38.10;7.40;;;5.10;37.20;;;;;;5071440;28;20833;-59
2022/04/05 03:18:54;;;;;;;38.83;8.20;;;5.10;37.00;;;;;;5060119;28;20489;-60
2022/04/05 03:21:20;;;;;;;38.87;8.80;;;5.10;37.20;;;;;;5063824;28;20552;-61
2022/04/05 03:23:47;;;;;;;38.17;7.70;;;5.10;37.40;;;;;;5069071;28;20481;-60
2022/04/05 03:26:16;;;;;;;39.70;8.37;;;5.10;37.40;;;;;;5065456;28;20461;-59
2022/04/05 03:28:43;;;;;;;42.00;8.10;;;5.10;37.80;;;;;;5063673;28;20480;-61
2022/04/05 03:31:10;;;;;;;39.53;7.90;;;5.10;38.00;;;;;;5062569;28;20489;-59
2022/04/05 03:33:36;;;;;;;39.60;9.10;;;5.00;38.00;;;;;;5064110;28;20457;-58
2022/04/05 03:36:05;;;;;;;38.50;7.97;;;5.00;38.30;;;;;;5064670;28;20843;-60
2022/04/05 03:38:32;;;;;;;37.50;7.03;;;5.00;38.60;;;;;;5063895;28;20927;-57
2022/04/05 03:40:58;;;;;;;39.00;8.33;;;5.00;38.50;;;;;;5057238;28;21490;-59
2022/04/05 03:43:26;;;;;;;40.83;8.07;;;5.00;38.40;;;;;;5067084;28;20453;-59
2022/04/05 03:45:53;;;;;;;37.97;7.53;;;5.00;38.50;;;;;;5067128;28;20472;-60
2022/04/05 03:48:20;;;;;;;38.20;7.83;;;5.00;38.50;;;;;;5059592;28;20478;-60
2022/04/05 03:50:47;;;;;;;38.47;7.37;;;4.90;38.50;;;;;;5055734;28;20473;-58
2022/04/05 03:53:14;;;;;;;39.77;8.37;;;4.90;38.70;;;;;;5060170;28;20461;-58
2022/04/05 03:55:42;;;;;;;38.20;7.47;;;4.90;39.10;;;;;;5062570;28;20467;-60
2022/04/05 03:58:11;;;;;;;38.80;8.37;;;4.90;39.10;;;;;;5062406;28;20481;-60
2022/04/05 04:00:39;;;;;;;40.70;9.20;;;4.90;39.20;;;;;;5064798;28;20461;-59
2022/04/05 04:03:06;;;;;;;38.07;8.10;;;4.90;39.40;;;;;;5059747;28;20457;-60
2022/04/05 04:05:32;;;;;;;40.80;8.60;;;4.90;39.60;;;;;;5066254;28;21024;-59
2022/04/05 04:07:59;;;;;;;39.73;9.00;;;4.90;39.60;;;;;;5066355;28;21198;-59
2022/04/05 04:10:26;;;;;;;40.80;9.00;;;4.80;39.80;;;;;;5067804;28;20460;-60
2022/04/05 04:12:53;;;;;;;40.63;8.23;;;4.80;40.00;;;;;;5070006;28;20468;-60
2022/04/05 04:15:19;;;;;;;40.17;9.40;;;4.80;40.20;;;;;;5075560;28;20457;-60
2022/04/05 04:17:48;;;;;;;40.30;8.87;;;4.80;40.50;;;;;;5077492;28;20480;-61
2022/04/05 04:20:14;;;;;;;41.33;9.77;;;4.80;40.90;;;;;;5080679;28;20445;-62
2022/04/05 04:22:41;;;;;;;39.27;8.10;;;4.80;40.90;;;;;;5082222;28;20465;-60
2022/04/05 04:25:09;;;;;;;39.70;9.93;;;4.80;41.10;;;;;;5068264;28;20478;-60
2022/04/05 04:27:35;;;;;;;40.07;9.23;;;4.80;41.10;;;;;;5067130;28;20473;-60
2022/04/05 04:30:02;;;;;;;40.70;9.53;;;4.80;41.20;;;;;;5063876;28;20465;-62
2022/04/05 04:32:29;;;;;;;43.20;9.60;;;4.80;41.40;;;;;;5063128;28;20489;-60
2022/04/05 04:34:57;;;;;;;41.13;10.27;;;4.70;41.60;;;;;;5060987;28;20461;-60
2022/04/05 04:37:24;;;;;;;40.20;9.73;;;4.80;41.90;;;;;;5066627;28;20806;-60
2022/04/05 04:39:51;;;;;;;44.47;10.67;;;4.80;42.10;;;;;;5068782;28;20461;-60
2022/04/05 04:42:17;;;;;;;42.00;10.03;;;4.80;42.10;;;;;;5059494;28;20461;-61
2022/04/05 04:44:44;;;;;;;46.27;10.03;;;4.80;42.30;;;;;;5063002;28;20488;-60
2022/04/05 04:47:11;;;;;;;43.37;10.03;;;4.80;42.60;;;;;;5069062;28;20461;-58
2022/04/05 04:49:38;;;;;;;42.07;10.30;;;4.70;42.40;;;;;;5067917;28;20457;-60
2022/04/05 04:52:06;;;;;;;42.03;9.30;;;4.70;42.60;;;;;;5069036;28;21058;-61
2022/04/05 04:54:33;;;;;;;43.20;10.10;;;4.80;42.50;;;;;;5066949;28;20461;-59
2022/04/05 04:57:00;;;;;;;44.20;10.27;;;4.80;42.50;;;;;;5068683;28;20468;-60
2022/04/05 04:59:26;;;;;;;42.53;10.43;;;4.80;42.40;;;;;;5069604;28;20838;-60
2022/04/05 05:01:53;;;;;;;43.23;10.87;;;4.80;42.30;;;;;;5069170;28;20472;-60
2022/04/05 05:04:20;;;;;;;42.90;11.73;;;4.80;42.40;;;;;;5064034;28;20484;-60
2022/04/05 05:06:47;;;;;;;40.80;10.03;;;4.80;42.40;;;;;;5066638;28;20464;-60
2022/04/05 05:09:15;;;;;;;42.17;10.90;;;4.80;42.30;;;;;;5069520;28;20550;-60
2022/04/05 05:11:42;;;;;;;43.73;10.17;;;4.90;42.30;;;;;;5069211;28;20446;-59
2022/04/05 05:14:09;;;;;;;42.40;11.10;;;4.90;42.20;;;;;;5056229;28;20521;-60
2022/04/05 05:16:36;;;;;;;43.60;10.53;;;4.90;42.10;;;;;;5060223;28;20468;-60
2022/04/05 05:19:02;;;;;;;42.40;10.90;;;4.80;41.90;;;;;;5061455;28;21056;-60
2022/04/05 05:21:29;;;;;;;41.50;10.80;;;4.90;42.10;;;;;;5063094;28;20458;-60
2022/04/05 05:23:56;;;;;;;44.07;11.10;;;4.90;42.20;;;;;;5064979;28;20472;-60
2022/04/05 05:26:24;;;;;;;42.30;11.10;;;4.90;42.10;;;;;;5062177;28;20468;-60
2022/04/05 05:28:51;;;;;;;45.80;11.00;;;4.90;42.10;;;;;;5069133;28;20484;-60
2022/04/05 05:31:18;;;;;;;42.10;11.20;;;4.90;42.20;;;;;;5068240;28;20461;-60
2022/04/05 05:33:44;;;;;;;43.13;11.37;;;4.90;42.10;;;;;;5065345;28;20457;-60
2022/04/05 05:36:11;;;;;;;46.83;11.27;;;4.90;42.00;;;;;;5059734;28;20458;-58
2022/04/05 05:38:38;;;;;;;41.60;10.53;;;4.90;42.10;;;;;;5063304;28;20478;-59
2022/04/05 05:41:05;;;;;;;43.50;10.87;;;4.90;41.80;;;;;;5057728;28;20469;-60
2022/04/05 05:43:33;;;;;;;44.40;10.87;;;4.90;41.60;;;;;;5064070;28;20880;-60
2022/04/05 05:46:03;;;;;;;39.73;9.50;;;4.90;42.10;;;;;;5059876;28;21009;-60
2022/04/05 05:48:29;;;;;;;42.53;10.97;;;4.90;42.10;;;;;;5062926;28;20473;-60
2022/04/05 05:50:56;;;;;;;40.10;10.27;;;4.90;41.80;;;;;;5064372;28;20460;-59
2022/04/05 05:53:23;;;;;;;44.77;11.10;;;4.90;41.70;;;;;;5062152;28;20461;-60
2022/04/05 05:55:50;;;;;;;44.43;12.80;;;4.90;41.70;;;;;;5063260;28;20894;-60
2022/04/05 05:58:17;;;;;;;41.87;10.80;;;5.00;41.50;;;;;;5066053;28;20477;-59
2022/04/05 06:00:45;;;;;;;43.60;11.27;;;5.00;41.50;;;;;;5068271;28;20456;-60
2022/04/05 06:03:12;;;;;;;41.30;9.40;;;5.00;41.10;;;;;;5068541;28;20489;-60
2022/04/05 06:05:39;;;;;;;42.17;10.57;;;5.00;41.20;;;;;;5066942;28;20846;-61
2022/04/05 06:08:07;;;;;;;42.73;10.90;;;5.00;41.00;;;;;;5064587;28;20496;-60
2022/04/05 06:10:33;;;;;;;41.50;10.67;;;5.00;40.50;;;;;;5063359;28;20457;-58
2022/04/05 06:13:00;;;;;;;43.30;10.70;;;5.10;40.70;;;;;;5060694;28;20468;-59
2022/04/05 06:15:28;;;;;;;41.93;10.00;;;5.10;40.70;;;;;;5065981;28;20564;-59
2022/04/05 06:17:58;;;;;;;41.07;10.17;;;5.10;40.30;;;;;;5066393;28;20480;-59
2022/04/05 06:20:26;;;;;;;39.50;9.80;;;5.10;40.20;;;;;;5061689;28;20461;-60
2022/04/05 06:22:55;;;;;;;39.30;9.83;;;5.10;40.20;;;;;;5064270;28;20457;-60
2022/04/05 06:25:23;;;;;;;40.70;10.37;;;5.20;40.10;;;;;;5065639;28;20477;-60
2022/04/05 06:27:50;;;;;;;39.63;9.97;;;5.20;40.00;;;;;;5062603;28;20503;-60
2022/04/05 06:30:18;;;;;;;42.93;11.83;;;5.20;39.90;;;;;;5066136;28;20456;-61
2022/04/05 06:32:45;;;;;;;47.73;10.73;;;5.30;40.10;;;;;;5063112;28;20461;-60
2022/04/05 06:35:15;;;;;;;43.30;10.77;;;5.30;40.10;;;;;;5066980;28;20466;-61
2022/04/05 06:37:44;;;;;;;40.67;10.20;;;5.30;40.00;;;;;;5058435;28;20484;-59
2022/04/05 06:40:13;;;;;;;41.63;10.30;;;5.30;39.70;;;;;;5059996;28;20471;-60
2022/04/05 06:42:43;;;;;;;42.43;10.73;;;5.40;39.60;;;;;;5059201;28;21003;-59
2022/04/05 06:45:11;;;;;;;39.97;9.40;;;5.40;39.80;;;;;;5062535;28;20489;-59
2022/04/05 06:47:38;;;;;;;40.57;10.67;;;5.40;39.80;;;;;;5057145;28;20485;-59
2022/04/05 06:50:08;;;;;;;38.70;9.30;;;5.30;39.80;;;;;;5065154;28;20453;-59
2022/04/05 06:52:37;;;;;;;39.17;8.50;;;5.40;39.60;;;;;;5061972;28;20457;-60
2022/04/05 06:55:04;;;;;;;40.97;8.67;;;5.30;39.90;;;;;;5062804;28;20507;-59
2022/04/05 06:57:31;;;;;;;40.63;9.07;;;5.30;39.90;;;;;;5067910;28;20994;-59
2022/04/05 06:59:58;;;;;;;39.93;8.90;;;5.30;39.70;;;;;;5066278;28;20469;-59
2022/04/05 07:02:25;;;;;;;42.20;9.27;;;5.30;39.70;;;;;;5066801;28;20479;-59
2022/04/05 07:04:51;;;;;;;40.60;9.43;;;5.30;39.70;;;;;;5067066;28;20481;-60
2022/04/05 07:07:19;;;;;;;40.83;8.80;;;5.30;40.10;;;;;;5060920;28;21076;-60
2022/04/05 07:09:47;;;;;;;40.30;9.93;;;5.30;39.80;;;;;;5058671;28;20856;-60
2022/04/05 07:12:13;;;;;;;41.27;9.73;;;5.30;39.80;;;;;;5067252;28;20468;-59
2022/04/05 07:14:40;;;;;;;46.50;9.97;;;5.30;39.90;;;;;;5067998;28;20458;-59
2022/04/05 07:17:07;;;;;;;40.60;9.30;;;5.40;39.90;;;;;;5067669;28;20461;-60
2022/04/05 07:19:34;;;;;;;41.03;8.90;;;5.40;39.70;;;;;;5059574;28;20481;-59
2022/04/05 07:22:01;;;;;;;41.43;9.53;;;5.40;39.70;;;;;;5065717;28;20457;-60
2022/04/05 07:24:28;;;;;;;39.57;9.13;;;5.40;40.00;;;;;;5065103;28;20457;-59
2022/04/05 07:26:56;;;;;;;42.97;9.47;;;5.40;39.80;;;;;;5067652;28;20461;-60
2022/04/05 07:29:23;;;;;;;39.77;9.77;;;5.50;40.00;;;;;;5064439;28;20615;-59
2022/04/05 07:31:50;;;;;;;38.80;8.23;;;5.50;39.80;;;;;;5063788;28;20486;-59
2022/04/05 07:34:16;;;;;;;42.13;10.13;;;5.50;39.80;;;;;;5062723;28;20468;-59
2022/04/05 07:36:43;;;;;;;40.73;9.43;;;5.50;39.70;;;;;;5059858;28;20449;-59
2022/04/05 07:39:10;;;;;;;40.20;9.17;;;5.50;39.80;;;;;;5067334;28;20476;-59
2022/04/05 07:41:38;;;;;;;39.73;9.33;;;5.60;39.80;;;;;;5060793;28;20504;-60
2022/04/05 07:44:07;;;;;;;39.37;9.17;;;5.60;39.60;;;;;;5057494;28;21098;-59
2022/04/05 07:46:35;;;;;;;40.17;9.40;;;5.70;39.30;;;;;;5067403;28;20514;-60
2022/04/05 07:49:01;;;;;;;40.90;10.70;;;5.70;39.50;;;;;;5065013;28;20513;-60
2022/04/05 07:51:28;;;;;;;38.70;8.53;;;5.80;39.20;;;;;;5064250;28;20465;-59
2022/04/05 07:53:55;;;;;;;39.33;8.67;;;5.80;38.60;;;;;;5071348;28;20457;-60
2022/04/05 07:56:22;;;;;;;40.23;9.47;;;5.80;38.80;;;;;;5071175;28;20457;-61
2022/04/05 07:58:48;;;;;;;39.77;8.57;;;5.90;38.40;;;;;;5069896;28;20476;-60
2022/04/05 08:01:16;;;;;;;40.00;8.57;;;5.90;38.30;;;;;;5068845;28;20473;-59
2022/04/05 08:03:43;;;;;;;40.37;9.80;;;5.90;38.30;;;;;;5070747;28;20453;-59
2022/04/05 08:06:10;;;;;;;40.07;9.13;;;6.00;38.40;;;;;;5056257;28;20484;-59
2022/04/05 08:08:37;;;;;;;38.17;8.27;;;6.10;38.20;;;;;;5071152;28;20481;-60
2022/04/05 08:11:04;;;;;;;38.37;9.60;;;6.10;38.30;;;;;;5065451;28;20506;-59
2022/04/05 08:13:30;;;;;;;40.33;8.97;;;6.20;38.20;;;;;;5065788;28;20466;-59
2022/04/05 08:15:57;;;;;;;38.07;8.33;;;6.30;38.10;;;;;;5068784;28;20496;-60
2022/04/05 08:18:25;;;;;;;42.33;9.27;;;6.40;36.80;;;;;;5069415;28;20974;-59
2022/04/05 08:20:54;;;;;;;39.80;9.10;;;6.40;36.30;;;;;;5059200;28;20455;-60
2022/04/05 08:23:21;;;;;;;38.27;7.70;;;6.40;36.30;;;;;;5060780;28;20457;-60
2022/04/05 08:25:48;;;;;;;38.27;7.97;;;6.40;36.20;;;;;;5064649;28;20481;-59
2022/04/05 08:28:14;;;;;;;39.50;8.53;;;6.40;35.70;;;;;;5055641;28;21037;-58
2022/04/05 08:30:41;;;;;;;40.07;8.70;;;6.50;35.80;;;;;;5064461;28;20476;-60
2022/04/05 08:33:08;;;;;;;39.20;8.70;;;6.60;35.30;;;;;;5058015;28;20468;-60
2022/04/05 08:35:37;;;;;;;39.73;7.90;;;6.60;35.40;;;;;;5058810;28;20460;-61
2022/04/05 08:38:04;;;;;;;38.50;7.73;;;6.70;35.10;;;;;;5056795;28;20477;-60
2022/04/05 08:40:31;;;;;;;38.13;7.50;;;6.80;35.20;;;;;;5055518;28;20481;-61
2022/04/05 08:42:58;;;;;;;38.53;7.43;;;6.90;34.70;;;;;;5059528;28;20464;-59
2022/04/05 08:45:27;;;;;;;38.00;8.00;;;6.90;34.30;;;;;;5057627;28;20694;-60
2022/04/05 08:47:55;;;;;;;41.57;8.67;;;7.00;34.10;;;;;;5055964;28;20876;-58
2022/04/05 08:50:29;;;;;;;37.30;7.97;;;7.20;33.40;;;;;;5065085;28;20465;-60
2022/04/05 08:52:59;;;;;;;42.37;7.90;;;7.30;33.00;;;;;;5062381;28;20466;-61
2022/04/05 08:55:28;;;;;;;37.27;7.60;;;7.50;32.60;;;;;;5064726;28;20889;-60
2022/04/05 08:57:55;;;;;;;38.47;7.80;;;7.50;32.10;;;;;;5062092;28;20587;-60
2022/04/05 09:00:23;;;;;;;37.87;7.50;;;7.50;32.60;;;;;;5060615;28;20468;-59
2022/04/05 09:02:58;;;;;;;38.30;6.83;;;7.60;33.10;;;;;;5059882;28;20970;-60
2022/04/05 09:05:30;;;;;;;37.07;7.30;;;7.80;33.10;;;;;;5057089;28;20477;-60
2022/04/05 09:08:17;;;;;;;37.73;7.80;;;8.10;32.50;;;;;;5060808;28;20481;-61
2022/04/05 09:10:45;;;;;;;36.10;6.60;;;8.40;30.50;;;;;;5066309;28;20457;-60
2022/04/05 09:13:13;;;;;;;36.10;6.87;;;8.70;29.90;;;;;;5063599;28;20963;-59
2022/04/05 09:15:42;;;;;;;36.97;6.73;;;8.90;29.60;;;;;;5067423;28;20457;-60
2022/04/05 09:18:09;;;;;;;37.70;6.60;;;9.00;29.10;;;;;;5061938;28;20481;-59
2022/04/05 09:20:46;;;;;;;35.27;6.50;;;9.00;28.30;;;;;;5060313;28;20481;-63
2022/04/05 09:23:33;;;;;;;36.27;7.17;;;9.00;28.30;;;;;;5058071;28;20465;-60
2022/04/05 09:26:01;;;;;;;37.00;7.73;;;8.90;28.10;;;;;;5059071;28;20480;-59
2022/04/05 09:28:30;;;;;;;36.77;7.10;;;8.90;27.50;;;;;;5068858;28;20531;-59
2022/04/05 09:30:58;;;;;;;36.00;6.97;;;8.80;26.90;;;;;;5059582;28;20475;-60
2022/04/05 09:33:25;;;;;;;38.40;7.20;;;8.70;27.30;;;;;;5065686;28;20520;-59
2022/04/05 09:36:03;;;;;;;36.80;7.33;;;8.60;28.40;;;;;;5061973;28;20457;-61
2022/04/05 09:38:31;;;;;;;35.67;7.60;;;8.60;29.30;;;;;;5063765;28;20469;-60
2022/04/05 09:41:10;;;;;;;35.80;6.70;;;8.50;29.90;;;;;;5063490;28;20480;-60
2022/04/05 09:43:37;;;;;;;37.43;7.80;;;8.50;29.20;;;;;;5065068;28;20449;-60
2022/04/05 09:46:05;;;;;;;36.10;7.37;;;8.60;29.40;;;;;;5062792;28;20560;-59
2022/04/05 09:48:35;;;;;;;35.80;6.80;;;8.70;29.00;;;;;;5064659;28;20653;-60
2022/04/05 09:51:06;;;;;;;36.00;6.57;;;8.80;29.00;;;;;;5062316;28;20446;-59
2022/04/05 09:53:47;;;;;;;35.97;6.97;;;8.80;29.00;;;;;;5062122;28;20449;-58
2022/04/05 09:56:15;;;;;;;36.77;6.77;;;8.90;28.70;;;;;;5063554;28;20449;-61
2022/04/05 09:58:48;;;;;;;37.47;7.50;;;9.00;27.10;;;;;;5064667;28;20481;-60
2022/04/05 10:01:15;;;;;;;36.80;7.03;;;9.40;27.00;;;;;;5064404;28;20466;-60
2022/04/05 10:03:43;;;;;;;36.20;7.13;;;9.90;26.10;;;;;;5060632;28;20469;-60
2022/04/05 10:06:10;;;;;;;35.37;6.70;;;10.10;25.10;;;;;;5064939;28;20531;-60
2022/04/05 10:08:39;;;;;;;35.77;7.10;;;10.20;24.50;;;;;;5063779;28;20485;-60
2022/04/05 10:11:07;;;;;;;36.40;7.60;;;10.30;25.00;;;;;;5063880;28;20814;-60
2022/04/05 10:13:34;;;;;;;35.43;7.80;;;10.70;24.00;;;;;;5061525;28;20911;-59
2022/04/05 10:16:01;;;;;;;34.27;6.90;;;11.60;23.40;;;;;;5063714;28;20472;-60
2022/04/05 10:18:34;;;;;;;34.53;7.03;;;12.50;21.70;;;;;;5063639;28;21827;-62
2022/04/05 10:21:03;;;;;;;37.63;7.20;;;13.00;18.10;;;;;;5063845;28;20895;-60
2022/04/05 10:23:30;;;;;;;35.67;7.30;;;12.60;17.30;;;;;;5062072;28;20461;-61
2022/04/05 10:25:58;;;;;;;34.80;7.20;;;12.30;19.50;;;;;;5063890;28;20480;-60
2022/04/05 10:28:29;;;;;;;35.50;7.07;;;12.00;19.40;;;;;;5063867;28;20483;-60
2022/04/05 10:31:04;;;;;;;36.93;8.33;;;11.70;19.60;;;;;;5063390;28;20481;-61
2022/04/05 10:33:42;;;;;;;36.23;7.87;;;11.40;20.00;;;;;;5060385;28;20472;-62
2022/04/05 10:36:09;;;;;;;34.57;7.37;;;11.30;20.90;;;;;;5063158;28;20464;-60
2022/04/05 10:38:36;;;;;;;36.33;8.10;;;11.20;20.30;;;;;;5063449;28;20565;-60
2022/04/05 10:41:13;;;;;;;40.30;8.30;;;11.10;20.70;;;;;;5064149;28;20560;-60
2022/04/05 10:43:43;;;;;;;36.03;7.70;;;11.00;21.30;;;;;;5061080;28;20460;-59
2022/04/05 10:46:10;;;;;;;35.90;7.57;;;10.90;22.10;;;;;;5063785;28;20485;-60
2022/04/05 10:48:38;;;;;;;36.73;8.63;;;10.90;22.40;;;;;;5063212;28;20889;-61
2022/04/05 10:51:12;;;;;;;36.87;7.23;;;10.80;22.60;;;;;;5062856;28;20454;-59
2022/04/05 10:53:41;;;;;;;36.80;8.47;;;10.80;23.50;;;;;;5061887;28;20468;-59
2022/04/05 10:56:15;;;;;;;37.70;7.93;;;10.70;23.30;;;;;;5062320;28;20453;-60
2022/04/05 10:59:27;;;;;;;35.70;8.80;;;10.70;23.40;;;;;;5063561;28;20485;-61
2022/04/05 11:01:54;;;;;;;35.27;7.60;;;10.70;23.20;;;;;;5063679;28;20509;-60
2022/04/05 11:04:33;;;;;;;35.70;8.00;;;10.70;22.30;;;;;;5059904;28;20466;-61
2022/04/05 11:07:13;;;;;;;37.73;8.03;;;10.60;22.50;;;;;;5063241;28;20874;-61
2022/04/05 11:09:50;;;;;;;36.97;8.03;;;10.50;22.40;;;;;;5063150;28;21048;-61
2022/04/05 11:12:24;;;;;;;39.67;8.50;;;10.60;23.40;;;;;;5066762;28;20457;-60
2022/04/05 11:14:56;;;;;;;35.80;7.13;;;10.60;23.00;;;;;;5080806;28;20546;-61
2022/04/05 11:17:26;;;;;;;36.47;7.63;;;10.50;21.80;;;;;;5083773;28;20447;-62
2022/04/05 11:19:55;;;;;;;38.47;8.53;;;10.40;23.30;;;;;;5085534;28;20449;-63
2022/04/05 11:22:33;;;;;;;38.23;8.00;;;10.40;23.30;;;;;;5083975;28;20539;-60
2022/04/05 11:25:04;;;;;;;36.80;8.50;;;10.40;23.20;;;;;;5068681;28;21008;-58
2022/04/05 11:27:33;;;;;;;37.73;8.27;;;10.40;23.50;;;;;;5066467;28;20569;-61
2022/04/05 11:30:40;;;;;;;37.53;8.33;;;10.50;23.50;;;;;;5066056;28;20465;-60
2022/04/05 11:33:37;;;;;;;39.03;9.23;;;10.60;22.50;;;;;;5067003;28;20452;-60
2022/04/05 11:36:07;;;;;;;39.37;11.03;;;10.80;22.60;;;;;;5065016;28;20467;-60
2022/04/05 11:38:35;;;;;;;37.33;8.07;;;11.20;22.30;;;;;;5067143;28;20489;-60
2022/04/05 11:41:07;;;;;;;46.10;16.70;;;11.60;21.70;;;;;;5067590;28;20471;-59
2022/04/05 11:43:36;;;;;;;40.40;11.83;;;11.90;21.30;;;;;;5066971;28;20503;-58
2022/04/05 11:46:06;;;;;;;42.43;12.17;;;12.10;19.80;;;;;;5058095;28;20464;-63
2022/04/05 11:48:34;;;;;;;38.30;8.63;;;12.20;19.70;;;;;;5065899;28;20473;-58
2022/04/05 11:51:06;;;;;;;36.20;7.80;;;12.50;19.50;;;;;;5064714;28;20550;-59
2022/04/05 11:53:34;;;;;;;35.93;7.90;;;12.70;19.00;;;;;;5065266;28;20551;-62
2022/04/05 11:56:09;;;;;;;36.93;8.90;;;13.00;18.50;;;;;;5061067;28;20469;-60
2022/04/05 11:58:38;;;;;;;35.07;8.83;;;13.20;19.10;;;;;;5059384;28;21110;-59
2022/04/05 12:01:06;;;;;;;36.10;7.93;;;13.50;18.30;;;;;;5064452;28;20473;-63
2022/04/05 12:03:46;;;;;;;36.13;7.60;;;13.70;17.50;;;;;;5065725;28;20453;-57
2022/04/05 12:06:13;;;;;;;34.13;7.10;;;13.80;16.80;;;;;;5062337;28;20460;-59
2022/04/05 12:08:41;;;;;;;35.10;8.23;;;13.70;16.30;;;;;;5059238;28;20478;-61
2022/04/05 12:11:09;;;;;;;34.83;8.20;;;13.50;17.30;;;;;;5064816;28;20457;-58
2022/04/05 12:13:37;;;;;;;37.53;8.07;;;13.50;17.70;;;;;;5059637;28;20616;-57
2022/04/05 12:16:06;;;;;;;38.30;7.80;;;13.50;17.50;;;;;;5066223;28;20457;-60
2022/04/05 12:18:33;;;;;;;36.57;7.00;;;13.70;18.60;;;;;;5067717;28;21012;-61
2022/04/05 12:21:04;;;;;;;36.77;7.37;;;13.80;17.70;;;;;;5061804;28;20955;-59
2022/04/05 12:23:33;;;;;;;34.70;6.93;;;13.80;17.20;;;;;;5064906;28;20462;-60
2022/04/05 12:26:12;;;;;;;34.27;7.47;;;13.90;17.60;;;;;;5064957;28;20461;-60
2022/04/05 12:28:41;;;;;;;35.70;8.10;;;14.00;17.40;;;;;;5064219;28;20858;-60
2022/04/05 12:31:10;;;;;;;35.83;7.80;;;14.20;16.10;;;;;;5064565;28;20473;-60
2022/04/05 12:33:39;;;;;;;35.27;8.10;;;14.20;15.50;;;;;;5063573;28;20467;-59
2022/04/05 12:36:08;;;;;;;36.37;8.13;;;14.10;15.70;;;;;;5058699;28;20461;-61
2022/04/05 12:38:35;;;;;;;34.70;7.10;;;13.90;15.80;;;;;;5063864;28;20482;-59
2022/04/05 12:41:03;;;;;;;34.83;7.37;;;13.70;15.60;;;;;;5060448;28;20496;-62
2022/04/05 12:43:30;;;;;;;36.00;8.10;;;13.70;16.30;;;;;;5059572;28;20481;-61
2022/04/05 12:46:10;;;;;;;38.40;7.70;;;13.70;17.30;;;;;;5058693;28;20454;-61
2022/04/05 12:48:37;;;;;;;37.00;8.90;;;13.80;16.40;;;;;;5063223;28;21159;-61
2022/04/05 12:51:04;;;;;;;34.00;7.50;;;13.90;16.20;;;;;;5060587;28;20515;-58